KDLS/DLS METAR and TAF weather

Enter ICAO airport designator
Station Type Date Time Source
KDLS METAR 2019/04/19 21:53 UTC NOAA

KDLS 192153Z AUTO 30018G24KT 10SM OVC110 21/10 A2983 RMK AO2 PK WND 32027/2106 SLP099 T02110100


Station Type Date Time Source
KDLS Decoded METAR 2019/04/19 21:53 UTC NOAA

THE DALLES MUNICIPAL AIRPORT , OR, United States (KDLS) 45-37N 121-10W 71M
Apr 19, 2019 - 05:53 PM EDT / 2019.04.19 2153 UTC
Wind: from the WNW (300 degrees) at 21 MPH (18 KT) gusting to 28 MPH (24 KT):0
Visibility: 10 mile(s):0
Sky conditions: overcast
Temperature: 70.0 F (21.1 C)
Dew Point: 50.0 F (10.0 C)
Relative Humidity: 49%
Pressure (altimeter): 29.83 in. Hg (1010 hPa)
ob: KDLS 192153Z AUTO 30018G24KT 10SM OVC110 21/10 A2983 RMK AO2 PK WND 32027/2106 SLP099 T02110100
cycle: 22

Station Type Date Time Source
KDLS TAF 2019/04/19 18:22 UTC NOAA

TAF KDLS 191720Z 1918/2018 31012G18KT P6SM SCT040 BKN150
FM192000 31016G24KT P6SM VCSH SCT060 BKN080
FM200100 31011KT P6SM -SHRA OVC050
FM200800 30010KT P6SM BKN100 OVC200
FM201500 30014KT P6SM SCT100

Example: see airport list